Altdorf, Wisconsin
Current Conditions -  °F | °C
As of 2:54 PM on Friday 31 Oct 2014 (Local Time) from KISW Reporting Station
Broken Clouds Broken Clouds  
Wind Chill: 29°   Ceiling: 4800
Heat Index: 39°   Visibility: 10mi
Dew Point: 18°   Wind: 21mph
Humidity: 43%   Direction: 20°NNE
Pressure: 30.41"   Gusts: 26mph
Location:  44.4583°N, 90.0009°W
Report Text: KISW 311954Z AUTO 02018G23KT 10SM BKN048 04/M08 A3041 RMK AO2 SLP309 T00391078
Loading
Personal Weather Stations






























Interactive Weather Map New forecast layout! Learn more

10-Day Weather Forecast

Advertisements
Track Severe Weather on mobile